sensor_id;sensor_type;location;lat;lon;timestamp;pressure;altitude;pressure_sealevel;temperature;humidity
12963;BME280;6546;49.882;8.666;2023-03-29T00:01:33;100424.69;;;7.82;63.39
12963;BME280;6546;49.882;8.666;2023-03-29T00:04:01;100411.03;;;7.91;61.71
12963;BME280;6546;49.882;8.666;2023-03-29T00:06:32;100405.19;;;7.80;61.96
12963;BME280;6546;49.882;8.666;2023-03-29T00:08:59;100409.66;;;7.78;61.98
12963;BME280;6546;49.882;8.666;2023-03-29T00:11:29;100409.13;;;7.74;62.12
12963;BME280;6546;49.882;8.666;2023-03-29T00:13:56;100399.91;;;7.72;62.11
12963;BME280;6546;49.882;8.666;2023-03-29T00:16:22;100387.81;;;7.72;62.15
12963;BME280;6546;49.882;8.666;2023-03-29T00:18:49;100379.81;;;7.75;62.18
12963;BME280;6546;49.882;8.666;2023-03-29T00:21:16;100388.50;;;7.65;62.35
12963;BME280;6546;49.882;8.666;2023-03-29T00:23:44;100378.84;;;7.67;62.57
12963;BME280;6546;49.882;8.666;2023-03-29T00:26:10;100373.03;;;7.55;63.10
12963;BME280;6546;49.882;8.666;2023-03-29T00:28:37;100370.47;;;7.46;63.63
12963;BME280;6546;49.882;8.666;2023-03-29T00:31:05;100361.09;;;7.45;63.55
12963;BME280;6546;49.882;8.666;2023-03-29T00:33:32;100359.59;;;7.42;63.56
12963;BME280;6546;49.882;8.666;2023-03-29T00:35:59;100360.00;;;7.37;63.49
12963;BME280;6546;49.882;8.666;2023-03-29T00:38:26;100359.88;;;7.39;63.53
12963;BME280;6546;49.882;8.666;2023-03-29T00:40:54;100359.06;;;7.38;63.38
12963;BME280;6546;49.882;8.666;2023-03-29T00:43:21;100355.13;;;7.34;63.70
12963;BME280;6546;49.882;8.666;2023-03-29T00:45:47;100352.97;;;7.39;63.47
12963;BME280;6546;49.882;8.666;2023-03-29T00:48:16;100349.41;;;7.40;63.42
12963;BME280;6546;49.882;8.666;2023-03-29T00:50:47;100351.59;;;7.35;63.89
12963;BME280;6546;49.882;8.666;2023-03-29T00:53:18;100351.31;;;7.38;63.52
12963;BME280;6546;49.882;8.666;2023-03-29T00:55:50;100351.31;;;7.38;63.58
12963;BME280;6546;49.882;8.666;2023-03-29T00:58:23;100349.69;;;7.37;63.95
12963;BME280;6546;49.882;8.666;2023-03-29T01:01:04;100357.41;;;7.37;63.90
12963;BME280;6546;49.882;8.666;2023-03-29T01:03:34;100356.47;;;7.38;63.85
12963;BME280;6546;49.882;8.666;2023-03-29T01:06:07;100351.59;;;7.35;63.85
12963;BME280;6546;49.882;8.666;2023-03-29T01:08:39;100348.88;;;7.37;63.73
12963;BME280;6546;49.882;8.666;2023-03-29T01:11:11;100350.41;;;7.39;63.60
12963;BME280;6546;49.882;8.666;2023-03-29T01:13:49;100343.34;;;7.42;63.80
12963;BME280;6546;49.882;8.666;2023-03-29T01:16:18;100341.56;;;7.42;63.61
12963;BME280;6546;49.882;8.666;2023-03-29T01:18:46;100331.53;;;7.39;64.04
12963;BME280;6546;49.882;8.666;2023-03-29T01:21:18;100324.63;;;7.39;63.97
12963;BME280;6546;49.882;8.666;2023-03-29T01:24:11;100333.03;;;7.42;64.19
12963;BME280;6546;49.882;8.666;2023-03-29T01:26:49;100322.31;;;7.36;64.15
12963;BME280;6546;49.882;8.666;2023-03-29T01:29:23;100328.69;;;7.32;64.30
12963;BME280;6546;49.882;8.666;2023-03-29T01:31:57;100323.66;;;7.31;64.78
12963;BME280;6546;49.882;8.666;2023-03-29T01:34:31;100332.75;;;7.25;65.05
12963;BME280;6546;49.882;8.666;2023-03-29T01:37:03;100322.44;;;7.25;65.03
12963;BME280;6546;49.882;8.666;2023-03-29T01:39:33;100319.88;;;7.25;65.02
12963;BME280;6546;49.882;8.666;2023-03-29T01:42:09;100309.41;;;7.17;65.31
12963;BME280;6546;49.882;8.666;2023-03-29T01:44:46;100292.75;;;7.21;65.20
12963;BME280;6546;49.882;8.666;2023-03-29T01:47:18;100313.91;;;7.15;65.35
12963;BME280;6546;49.882;8.666;2023-03-29T01:49:56;100303.31;;;7.09;65.71
12963;BME280;6546;49.882;8.666;2023-03-29T01:52:28;100303.03;;;7.12;65.81
12963;BME280;6546;49.882;8.666;2023-03-29T01:55:01;100294.94;;;7.07;65.57
12963;BME280;6546;49.882;8.666;2023-03-29T01:57:29;100287.59;;;7.12;65.59
12963;BME280;6546;49.882;8.666;2023-03-29T01:59:59;100283.00;;;7.06;66.02
12963;BME280;6546;49.882;8.666;2023-03-29T02:02:27;100278.66;;;7.06;66.12
12963;BME280;6546;49.882;8.666;2023-03-29T02:04:56;100283.66;;;6.98;66.56
12963;BME280;6546;49.882;8.666;2023-03-29T02:07:26;100290.16;;;7.02;66.64
12963;BME280;6546;49.882;8.666;2023-03-29T02:09:54;100275.28;;;7.15;65.77
12963;BME280;6546;49.882;8.666;2023-03-29T02:12:22;100265.13;;;7.04;66.17
12963;BME280;6546;49.882;8.666;2023-03-29T02:14:49;100263.59;;;7.02;66.38
12963;BME280;6546;49.882;8.666;2023-03-29T02:17:19;100259.81;;;7.06;66.17
12963;BME280;6546;49.882;8.666;2023-03-29T02:19:48;100257.25;;;7.15;65.90
12963;BME280;6546;49.882;8.666;2023-03-29T02:22:19;100266.88;;;7.13;65.83
12963;BME280;6546;49.882;8.666;2023-03-29T02:24:49;100261.31;;;7.08;66.19
12963;BME280;6546;49.882;8.666;2023-03-29T02:27:17;100257.13;;;7.07;66.16
12963;BME280;6546;49.882;8.666;2023-03-29T02:29:43;100259.28;;;7.02;66.58
12963;BME280;6546;49.882;8.666;2023-03-29T02:32:15;100260.38;;;7.00;66.62
12963;BME280;6546;49.882;8.666;2023-03-29T02:34:47;100250.72;;;7.02;66.65
12963;BME280;6546;49.882;8.666;2023-03-29T02:37:17;100247.78;;;7.06;66.84
12963;BME280;6546;49.882;8.666;2023-03-29T02:39:47;100252.09;;;7.06;66.54
12963;BME280;6546;49.882;8.666;2023-03-29T02:42:15;100246.84;;;7.07;66.70
12963;BME280;6546;49.882;8.666;2023-03-29T02:44:46;100247.09;;;7.04;67.10
12963;BME280;6546;49.882;8.666;2023-03-29T02:47:19;100240.97;;;7.05;67.19
12963;BME280;6546;49.882;8.666;2023-03-29T02:49:49;100237.19;;;7.09;67.02
12963;BME280;6546;49.882;8.666;2023-03-29T02:52:19;100221.75;;;7.09;66.81
12963;BME280;6546;49.882;8.666;2023-03-29T02:54:48;100224.19;;;7.01;67.33
12963;BME280;6546;49.882;8.666;2023-03-29T02:57:16;100215.25;;;7.05;67.07
12963;BME280;6546;49.882;8.666;2023-03-29T02:59:46;100213.88;;;7.01;66.92
12963;BME280;6546;49.882;8.666;2023-03-29T03:02:13;100216.06;;;6.96;67.21
12963;BME280;6546;49.882;8.666;2023-03-29T03:04:41;100210.09;;;6.86;67.84
12963;BME280;6546;49.882;8.666;2023-03-29T03:07:10;100209.16;;;6.87;68.01
12963;BME280;6546;49.882;8.666;2023-03-29T03:09:37;100208.63;;;6.93;67.87
12963;BME280;6546;49.882;8.666;2023-03-29T03:12:04;100207.13;;;6.91;67.83
12963;BME280;6546;49.882;8.666;2023-03-29T03:14:31;100215.50;;;6.83;68.13
12963;BME280;6546;49.882;8.666;2023-03-29T03:16:58;100214.56;;;6.84;67.89
12963;BME280;6546;49.882;8.666;2023-03-29T03:19:25;100204.13;;;6.76;68.52
12963;BME280;6546;49.882;8.666;2023-03-29T03:21:51;100209.44;;;6.84;68.09
12963;BME280;6546;49.882;8.666;2023-03-29T03:24:19;100212.66;;;6.86;68.00
12963;BME280;6546;49.882;8.666;2023-03-29T03:26:46;100216.72;;;6.88;67.92
12963;BME280;6546;49.882;8.666;2023-03-29T03:29:14;100209.16;;;6.87;67.88
12963;BME280;6546;49.882;8.666;2023-03-29T03:31:41;100212.28;;;6.81;68.21
12963;BME280;6546;49.882;8.666;2023-03-29T03:34:09;100202.78;;;6.81;68.12
12963;BME280;6546;49.882;8.666;2023-03-29T03:36:35;100218.75;;;6.85;68.31
12963;BME280;6546;49.882;8.666;2023-03-29T03:39:03;100209.81;;;6.89;68.35
12963;BME280;6546;49.882;8.666;2023-03-29T03:41:32;100206.84;;;6.94;67.86
12963;BME280;6546;49.882;8.666;2023-03-29T03:44:00;100205.75;;;6.96;67.70
12963;BME280;6546;49.882;8.666;2023-03-29T03:46:26;100206.16;;;6.92;67.94
12963;BME280;6546;49.882;8.666;2023-03-29T03:48:53;100202.53;;;6.94;67.95
12963;BME280;6546;49.882;8.666;2023-03-29T03:51:19;100200.50;;;6.88;68.14
12963;BME280;6546;49.882;8.666;2023-03-29T03:53:46;100205.66;;;6.88;68.44
12963;BME280;6546;49.882;8.666;2023-03-29T03:56:13;100211.72;;;6.97;68.01
12963;BME280;6546;49.882;8.666;2023-03-29T03:58:42;100218.63;;;6.96;67.94
12963;BME280;6546;49.882;8.666;2023-03-29T04:01:08;100219.84;;;6.92;68.12
12963;BME280;6546;49.882;8.666;2023-03-29T04:03:36;100223.94;;;6.95;68.17
12963;BME280;6546;49.882;8.666;2023-03-29T04:06:04;100209.97;;;6.97;67.79
12963;BME280;6546;49.882;8.666;2023-03-29T04:08:31;100202.25;;;6.97;67.88
12963;BME280;6546;49.882;8.666;2023-03-29T04:10:58;100199.13;;;6.94;68.04
12963;BME280;6546;49.882;8.666;2023-03-29T04:13:25;100202.78;;;6.91;68.32
12963;BME280;6546;49.882;8.666;2023-03-29T04:15:53;100199.13;;;6.84;68.22
12963;BME280;6546;49.882;8.666;2023-03-29T04:18:21;100195.19;;;6.80;68.43
12963;BME280;6546;49.882;8.666;2023-03-29T04:20:48;100195.75;;;6.83;68.52
12963;BME280;6546;49.882;8.666;2023-03-29T04:23:15;100196.84;;;6.81;68.36
12963;BME280;6546;49.882;8.666;2023-03-29T04:25:42;100196.69;;;6.73;68.98
12963;BME280;6546;49.882;8.666;2023-03-29T04:28:12;100209.25;;;6.66;69.02
12963;BME280;6546;49.882;8.666;2023-03-29T04:30:39;100197.38;;;6.65;69.22
12963;BME280;6546;49.882;8.666;2023-03-29T04:33:07;100206.94;;;6.63;69.67
12963;BME280;6546;49.882;8.666;2023-03-29T04:35:34;100195.56;;;6.66;69.05
12963;BME280;6546;49.882;8.666;2023-03-29T04:38:02;100195.47;;;6.67;69.14
12963;BME280;6546;49.882;8.666;2023-03-29T04:40:29;100198.69;;;6.69;69.19
12963;BME280;6546;49.882;8.666;2023-03-29T04:42:57;100189.88;;;6.53;69.47
12963;BME280;6546;49.882;8.666;2023-03-29T04:45:24;100202.50;;;6.56;69.92
12963;BME280;6546;49.882;8.666;2023-03-29T04:47:51;100209.94;;;6.59;69.84
12963;BME280;6546;49.882;8.666;2023-03-29T04:50:20;100193.44;;;6.71;69.54
12963;BME280;6546;49.882;8.666;2023-03-29T04:52:46;100191.13;;;6.68;69.50
12963;BME280;6546;49.882;8.666;2023-03-29T04:55:15;100198.69;;;6.60;69.91
12963;BME280;6546;49.882;8.666;2023-03-29T04:57:41;100188.28;;;6.71;69.63
12963;BME280;6546;49.882;8.666;2023-03-29T05:00:09;100191.94;;;6.68;69.67
12963;BME280;6546;49.882;8.666;2023-03-29T05:02:39;100192.50;;;6.72;69.64
12963;BME280;6546;49.882;8.666;2023-03-29T05:05:07;100193.28;;;6.63;70.20
12963;BME280;6546;49.882;8.666;2023-03-29T05:07:35;100193.00;;;6.66;69.83
12963;BME280;6546;49.882;8.666;2023-03-29T05:10:01;100189.22;;;6.70;69.70
12963;BME280;6546;49.882;8.666;2023-03-29T05:12:28;100196.28;;;6.68;70.02
12963;BME280;6546;49.882;8.666;2023-03-29T05:14:54;100192.50;;;6.72;70.25
12963;BME280;6546;49.882;8.666;2023-03-29T05:17:21;100180.03;;;6.77;69.86
12963;BME280;6546;49.882;8.666;2023-03-29T05:19:48;100187.06;;;6.75;69.92
12963;BME280;6546;49.882;8.666;2023-03-29T05:22:14;100192.34;;;6.83;70.21
12963;BME280;6546;49.882;8.666;2023-03-29T05:24:42;100188.97;;;6.82;70.24
12963;BME280;6546;49.882;8.666;2023-03-29T05:27:09;100189.50;;;6.96;69.67
12963;BME280;6546;49.882;8.666;2023-03-29T05:29:35;100193.84;;;6.95;69.68
12963;BME280;6546;49.882;8.666;2023-03-29T05:32:02;100186.53;;;7.00;69.41
12963;BME280;6546;49.882;8.666;2023-03-29T05:34:29;100184.63;;;7.02;69.13
12963;BME280;6546;49.882;8.666;2023-03-29T05:36:56;100178.25;;;7.06;69.11
12963;BME280;6546;49.882;8.666;2023-03-29T05:39:23;100174.06;;;7.05;69.33
12963;BME280;6546;49.882;8.666;2023-03-29T05:41:51;100184.91;;;7.09;69.38
12963;BME280;6546;49.882;8.666;2023-03-29T05:44:19;100182.03;;;7.12;69.63
12963;BME280;6546;49.882;8.666;2023-03-29T05:46:46;100185.16;;;7.15;69.57
12963;BME280;6546;49.882;8.666;2023-03-29T05:49:12;100185.41;;;7.22;69.24
12963;BME280;6546;49.882;8.666;2023-03-29T05:51:39;100180.16;;;7.23;69.26
12963;BME280;6546;49.882;8.666;2023-03-29T05:54:06;100190.84;;;7.28;69.05
12963;BME280;6546;49.882;8.666;2023-03-29T05:56:32;100187.72;;;7.34;68.98
12963;BME280;6546;49.882;8.666;2023-03-29T05:59:00;100186.75;;;7.35;68.91
12963;BME280;6546;49.882;8.666;2023-03-29T06:01:27;100191.63;;;7.38;68.84
12963;BME280;6546;49.882;8.666;2023-03-29T06:03:54;100196.22;;;7.45;68.93
12963;BME280;6546;49.882;8.666;2023-03-29T06:06:21;100188.50;;;7.45;68.86
12963;BME280;6546;49.882;8.666;2023-03-29T06:08:48;100189.56;;;7.52;68.70
12963;BME280;6546;49.882;8.666;2023-03-29T06:11:14;100192.00;;;7.53;68.33
12963;BME280;6546;49.882;8.666;2023-03-29T06:13:42;100197.84;;;7.55;68.16
12963;BME280;6546;49.882;8.666;2023-03-29T06:16:10;100197.41;;;7.60;68.10
12963;BME280;6546;49.882;8.666;2023-03-29T06:18:38;100192.13;;;7.61;67.59
12963;BME280;6546;49.882;8.666;2023-03-29T06:21:05;100191.28;;;7.70;66.80
12963;BME280;6546;49.882;8.666;2023-03-29T06:23:33;100200.78;;;7.70;67.26
12963;BME280;6546;49.882;8.666;2023-03-29T06:26:00;100193.44;;;7.75;66.39
12963;BME280;6546;49.882;8.666;2023-03-29T06:28:27;100201.84;;;7.77;65.85
12963;BME280;6546;49.882;8.666;2023-03-29T06:30:55;100201.97;;;7.85;66.00
12963;BME280;6546;49.882;8.666;2023-03-29T06:33:27;100203.56;;;7.86;65.70
12963;BME280;6546;49.882;8.666;2023-03-29T06:35:55;100215.63;;;7.85;66.00
12963;BME280;6546;49.882;8.666;2023-03-29T06:38:22;100212.13;;;7.86;65.92
12963;BME280;6546;49.882;8.666;2023-03-29T06:40:49;100221.19;;;7.90;65.50
12963;BME280;6546;49.882;8.666;2023-03-29T06:43:16;100210.19;;;7.88;65.74
12963;BME280;6546;49.882;8.666;2023-03-29T06:45:42;100203.41;;;7.97;65.96
12963;BME280;6546;49.882;8.666;2023-03-29T06:48:09;100207.59;;;7.98;65.76
12963;BME280;6546;49.882;8.666;2023-03-29T06:50:37;100202.59;;;7.97;66.05
12963;BME280;6546;49.882;8.666;2023-03-29T06:53:04;100204.34;;;7.96;65.50
12963;BME280;6546;49.882;8.666;2023-03-29T06:55:30;100200.13;;;7.95;65.61
12963;BME280;6546;49.882;8.666;2023-03-29T06:57:57;100203.13;;;8.00;65.52
12963;BME280;6546;49.882;8.666;2023-03-29T07:00:24;100214.38;;;7.99;65.64
12963;BME280;6546;49.882;8.666;2023-03-29T07:02:53;100207.31;;;8.01;65.76
12963;BME280;6546;49.882;8.666;2023-03-29T07:05:20;100210.16;;;7.98;66.10
12963;BME280;6546;49.882;8.666;2023-03-29T07:07:49;100211.50;;;8.02;66.01
12963;BME280;6546;49.882;8.666;2023-03-29T07:10:22;100204.31;;;8.06;66.42
12963;BME280;6546;49.882;8.666;2023-03-29T07:12:50;100211.47;;;8.12;65.86
12963;BME280;6546;49.882;8.666;2023-03-29T07:15:18;100208.75;;;8.13;66.35
12963;BME280;6546;49.882;8.666;2023-03-29T07:17:45;100207.53;;;8.17;66.04
12963;BME280;6546;49.882;8.666;2023-03-29T07:20:12;100210.19;;;8.25;65.91
12963;BME280;6546;49.882;8.666;2023-03-29T07:22:39;100208.69;;;8.32;65.59
12963;BME280;6546;49.882;8.666;2023-03-29T07:25:08;100210.31;;;8.33;65.19
12963;BME280;6546;49.882;8.666;2023-03-29T07:27:37;100212.97;;;8.41;64.89
12963;BME280;6546;49.882;8.666;2023-03-29T07:30:05;100208.47;;;8.43;64.65
12963;BME280;6546;49.882;8.666;2023-03-29T07:32:35;100220.53;;;8.53;64.29
12963;BME280;6546;49.882;8.666;2023-03-29T07:35:01;100224.13;;;8.60;64.13
12963;BME280;6546;49.882;8.666;2023-03-29T07:37:29;100221.00;;;8.66;64.01
12963;BME280;6546;49.882;8.666;2023-03-29T07:39:56;100222.84;;;8.73;64.01
12963;BME280;6546;49.882;8.666;2023-03-29T07:42:25;100223.06;;;8.80;63.58
12963;BME280;6546;49.882;8.666;2023-03-29T07:44:52;100234.44;;;8.87;63.58
12963;BME280;6546;49.882;8.666;2023-03-29T07:47:20;100242.22;;;8.95;63.09
12963;BME280;6546;49.882;8.666;2023-03-29T07:49:47;100235.00;;;8.98;62.63
12963;BME280;6546;49.882;8.666;2023-03-29T07:52:14;100240.25;;;9.07;62.47
12963;BME280;6546;49.882;8.666;2023-03-29T07:54:41;100238.56;;;9.15;62.70
12963;BME280;6546;49.882;8.666;2023-03-29T07:57:07;100238.47;;;9.25;62.19
12963;BME280;6546;49.882;8.666;2023-03-29T07:59:35;100233.81;;;9.28;61.32
12963;BME280;6546;49.882;8.666;2023-03-29T08:02:02;100243.25;;;9.37;60.78
12963;BME280;6546;49.882;8.666;2023-03-29T08:04:29;100239.41;;;9.41;60.82
12963;BME280;6546;49.882;8.666;2023-03-29T08:06:55;100243.97;;;9.47;58.86
12963;BME280;6546;49.882;8.666;2023-03-29T08:09:22;100243.16;;;9.47;59.11
12963;BME280;6546;49.882;8.666;2023-03-29T08:11:49;100233.34;;;9.50;59.45
12963;BME280;6546;49.882;8.666;2023-03-29T08:14:16;100240.78;;;9.54;59.11
12963;BME280;6546;49.882;8.666;2023-03-29T08:16:44;100239.69;;;9.56;59.16
12963;BME280;6546;49.882;8.666;2023-03-29T08:19:10;100243.56;;;9.60;59.59
12963;BME280;6546;49.882;8.666;2023-03-29T08:21:37;100240.38;;;9.66;58.89
12963;BME280;6546;49.882;8.666;2023-03-29T08:24:04;100237.22;;;9.72;58.78
12963;BME280;6546;49.882;8.666;2023-03-29T08:26:31;100237.69;;;9.76;58.37
12963;BME280;6546;49.882;8.666;2023-03-29T08:28:57;100231.94;;;9.82;58.44
12963;BME280;6546;49.882;8.666;2023-03-29T08:31:24;100224.72;;;9.93;58.77
12963;BME280;6546;49.882;8.666;2023-03-29T08:33:52;100224.59;;;10.03;57.64
12963;BME280;6546;49.882;8.666;2023-03-29T08:36:19;100220.97;;;10.14;57.92
12963;BME280;6546;49.882;8.666;2023-03-29T08:38:46;100216.31;;;10.17;57.03
12963;BME280;6546;49.882;8.666;2023-03-29T08:41:24;100218.09;;;10.25;57.52
12963;BME280;6546;49.882;8.666;2023-03-29T08:44:05;100221.84;;;10.30;56.83
12963;BME280;6546;49.882;8.666;2023-03-29T08:46:39;100224.13;;;10.41;56.76
12963;BME280;6546;49.882;8.666;2023-03-29T08:49:11;100224.00;;;10.51;56.62
12963;BME280;6546;49.882;8.666;2023-03-29T08:51:39;100222.56;;;10.57;56.33
12963;BME280;6546;49.882;8.666;2023-03-29T08:54:10;100223.41;;;10.65;55.34
12963;BME280;6546;49.882;8.666;2023-03-29T08:56:41;100226.50;;;10.69;55.33
12963;BME280;6546;49.882;8.666;2023-03-29T08:59:16;100230.72;;;10.78;55.74
12963;BME280;6546;49.882;8.666;2023-03-29T09:01:47;100235.56;;;10.81;56.07
12963;BME280;6546;49.882;8.666;2023-03-29T09:04:18;100228.94;;;10.78;55.88
12963;BME280;6546;49.882;8.666;2023-03-29T09:06:47;100231.03;;;10.75;55.84
12963;BME280;6546;49.882;8.666;2023-03-29T09:09:16;100234.25;;;10.77;56.58
12963;BME280;6546;49.882;8.666;2023-03-29T09:11:57;100236.84;;;10.77;56.57
12963;BME280;6546;49.882;8.666;2023-03-29T09:14:38;100234.56;;;10.74;56.75
12963;BME280;6546;49.882;8.666;2023-03-29T09:17:14;100239.44;;;10.77;56.95
12963;BME280;6546;49.882;8.666;2023-03-29T09:19:48;100237.34;;;10.80;56.90
12963;BME280;6546;49.882;8.666;2023-03-29T09:22:21;100232.19;;;10.88;56.96
12963;BME280;6546;49.882;8.666;2023-03-29T09:25:01;100240.44;;;11.00;56.29
12963;BME280;6546;49.882;8.666;2023-03-29T09:27:33;100225.06;;;11.06;56.55
12963;BME280;6546;49.882;8.666;2023-03-29T09:30:09;100229.59;;;11.13;57.02
12963;BME280;6546;49.882;8.666;2023-03-29T09:32:43;100232.88;;;11.15;56.68
12963;BME280;6546;49.882;8.666;2023-03-29T09:35:20;100226.53;;;11.09;56.52
12963;BME280;6546;49.882;8.666;2023-03-29T09:37:49;100220.72;;;11.07;56.40
12963;BME280;6546;49.882;8.666;2023-03-29T09:40:19;100214.22;;;11.03;56.79
12963;BME280;6546;49.882;8.666;2023-03-29T09:42:51;100227.81;;;11.05;57.32
12963;BME280;6546;49.882;8.666;2023-03-29T09:45:20;100212.91;;;10.99;57.71
12963;BME280;6546;49.882;8.666;2023-03-29T09:47:50;100216.19;;;11.01;58.50
12963;BME280;6546;49.882;8.666;2023-03-29T09:50:22;100212.13;;;10.98;58.57
12963;BME280;6546;49.882;8.666;2023-03-29T09:52:49;100200.63;;;11.01;58.12
12963;BME280;6546;49.882;8.666;2023-03-29T09:55:17;100214.38;;;11.10;57.30
12963;BME280;6546;49.882;8.666;2023-03-29T09:57:46;100214.06;;;11.13;57.14
12963;BME280;6546;49.882;8.666;2023-03-29T10:00:15;100215.03;;;11.20;57.54
12963;BME280;6546;49.882;8.666;2023-03-29T10:02:49;100211.97;;;11.24;57.55
12963;BME280;6546;49.882;8.666;2023-03-29T10:05:16;100212.28;;;11.29;58.01
12963;BME280;6546;49.882;8.666;2023-03-29T10:07:47;100209.38;;;11.32;57.14
12963;BME280;6546;49.882;8.666;2023-03-29T10:10:21;100212.13;;;11.31;57.70
12963;BME280;6546;49.882;8.666;2023-03-29T10:12:50;100205.13;;;11.31;57.55
12963;BME280;6546;49.882;8.666;2023-03-29T10:15:18;100200.44;;;11.35;58.69
12963;BME280;6546;49.882;8.666;2023-03-29T10:17:46;100208.69;;;11.38;58.19
12963;BME280;6546;49.882;8.666;2023-03-29T10:20:15;100203.69;;;11.45;57.77
12963;BME280;6546;49.882;8.666;2023-03-29T10:22:47;100205.44;;;11.44;57.58
12963;BME280;6546;49.882;8.666;2023-03-29T10:25:16;100204.50;;;11.45;57.42
12963;BME280;6546;49.882;8.666;2023-03-29T10:27:44;100186.66;;;11.42;57.32
12963;BME280;6546;49.882;8.666;2023-03-29T10:30:19;100197.03;;;11.42;57.39
12963;BME280;6546;49.882;8.666;2023-03-29T10:32:51;100194.44;;;11.42;57.99
12963;BME280;6546;49.882;8.666;2023-03-29T10:35:23;100194.13;;;11.45;58.28
12963;BME280;6546;49.882;8.666;2023-03-29T10:37:52;100169.81;;;11.46;57.22
12963;BME280;6546;49.882;8.666;2023-03-29T10:40:25;100166.53;;;11.60;57.48
12963;BME280;6546;49.882;8.666;2023-03-29T10:42:57;100178.84;;;11.75;57.19
12963;BME280;6546;49.882;8.666;2023-03-29T10:45:26;100159.88;;;11.82;56.92
12963;BME280;6546;49.882;8.666;2023-03-29T10:47:53;100160.25;;;12.02;56.89
12963;BME280;6546;49.882;8.666;2023-03-29T10:50:21;100150.81;;;12.09;56.54
12963;BME280;6546;49.882;8.666;2023-03-29T10:52:47;100150.91;;;12.24;57.51
12963;BME280;6546;49.882;8.666;2023-03-29T10:55:16;100161.72;;;12.35;56.22
12963;BME280;6546;49.882;8.666;2023-03-29T10:57:50;100152.63;;;12.39;56.12
12963;BME280;6546;49.882;8.666;2023-03-29T11:00:21;100140.25;;;12.41;55.65
12963;BME280;6546;49.882;8.666;2023-03-29T11:03:13;100152.53;;;12.47;57.11
12963;BME280;6546;49.882;8.666;2023-03-29T11:05:49;100159.50;;;12.55;56.08
12963;BME280;6546;49.882;8.666;2023-03-29T11:08:26;100150.06;;;12.54;56.37
12963;BME280;6546;49.882;8.666;2023-03-29T11:11:04;100145.19;;;12.59;56.30
12963;BME280;6546;49.882;8.666;2023-03-29T11:13:39;100137.78;;;12.71;56.55
12963;BME280;6546;49.882;8.666;2023-03-29T11:16:16;100146.50;;;12.78;56.30
12963;BME280;6546;49.882;8.666;2023-03-29T11:18:56;100142.84;;;12.87;57.03
12963;BME280;6546;49.882;8.666;2023-03-29T11:21:30;100146.03;;;12.97;57.10
12963;BME280;6546;49.882;8.666;2023-03-29T11:24:23;100146.66;;;12.99;56.10
12963;BME280;6546;49.882;8.666;2023-03-29T11:26:58;100157.03;;;12.99;55.94
12963;BME280;6546;49.882;8.666;2023-03-29T11:29:32;100152.13;;;13.04;55.97
12963;BME280;6546;49.882;8.666;2023-03-29T11:32:06;100152.13;;;13.04;55.66
12963;BME280;6546;49.882;8.666;2023-03-29T11:34:47;100149.25;;;12.99;55.46
12963;BME280;6546;49.882;8.666;2023-03-29T11:37:21;100145.22;;;12.96;55.24
12963;BME280;6546;49.882;8.666;2023-03-29T11:40:02;100150.13;;;12.91;55.36
12963;BME280;6546;49.882;8.666;2023-03-29T11:42:38;100149.16;;;12.92;56.48
12963;BME280;6546;49.882;8.666;2023-03-29T11:45:12;100146.22;;;12.95;56.33
12963;BME280;6546;49.882;8.666;2023-03-29T11:47:41;100143.25;;;12.98;55.77
12963;BME280;6546;49.882;8.666;2023-03-29T11:50:16;100142.09;;;13.01;56.32
12963;BME280;6546;49.882;8.666;2023-03-29T11:52:48;100144.34;;;13.04;55.70
12963;BME280;6546;49.882;8.666;2023-03-29T11:55:18;100134.75;;;13.04;56.12
12963;BME280;6546;49.882;8.666;2023-03-29T11:57:51;100128.44;;;12.99;55.87
12963;BME280;6546;49.882;8.666;2023-03-29T12:00:23;100135.13;;;13.01;56.82
12963;BME280;6546;49.882;8.666;2023-03-29T12:02:56;100126.84;;;12.98;57.06
12963;BME280;6546;49.882;8.666;2023-03-29T12:05:30;100132.97;;;13.05;56.88
12963;BME280;6546;49.882;8.666;2023-03-29T12:08:00;100132.75;;;13.14;57.65
12963;BME280;6546;49.882;8.666;2023-03-29T12:10:32;100134.09;;;13.25;57.64
12963;BME280;6546;49.882;8.666;2023-03-29T12:13:05;100138.25;;;13.34;56.75
12963;BME280;6546;49.882;8.666;2023-03-29T12:15:36;100119.13;;;13.42;56.23
12963;BME280;6546;49.882;8.666;2023-03-29T12:18:11;100107.47;;;13.52;56.39
12963;BME280;6546;49.882;8.666;2023-03-29T12:20:40;100107.81;;;13.64;55.55
12963;BME280;6546;49.882;8.666;2023-03-29T12:23:12;100117.50;;;13.70;55.82
12963;BME280;6546;49.882;8.666;2023-03-29T12:25:47;100109.09;;;13.68;55.90
12963;BME280;6546;49.882;8.666;2023-03-29T12:28:34;100110.88;;;13.67;55.08
12963;BME280;6546;49.882;8.666;2023-03-29T12:31:08;100103.53;;;13.71;55.64
12963;BME280;6546;49.882;8.666;2023-03-29T12:33:58;100104.22;;;13.80;55.99
12963;BME280;6546;49.882;8.666;2023-03-29T12:36:55;100106.19;;;13.92;54.92
12963;BME280;6546;49.882;8.666;2023-03-29T12:39:26;100098.25;;;14.00;55.70
12963;BME280;6546;49.882;8.666;2023-03-29T12:42:04;100100.88;;;14.00;54.91
12963;BME280;6546;49.882;8.666;2023-03-29T12:44:32;100100.69;;;14.02;54.52
12963;BME280;6546;49.882;8.666;2023-03-29T12:47:00;100101.31;;;14.04;55.02
12963;BME280;6546;49.882;8.666;2023-03-29T12:49:30;100103.38;;;14.08;54.90
12963;BME280;6546;49.882;8.666;2023-03-29T12:51:58;100102.19;;;14.11;54.59
12963;BME280;6546;49.882;8.666;2023-03-29T12:54:30;100084.13;;;14.09;54.91
12963;BME280;6546;49.882;8.666;2023-03-29T12:57:00;100094.31;;;14.04;54.62
12963;BME280;6546;49.882;8.666;2023-03-29T12:59:36;100092.25;;;14.00;55.46
12963;BME280;6546;49.882;8.666;2023-03-29T13:02:24;100092.97;;;13.94;55.43
12963;BME280;6546;49.882;8.666;2023-03-29T13:04:54;100078.19;;;13.94;56.81
12963;BME280;6546;49.882;8.666;2023-03-29T13:07:30;100083.00;;;13.97;55.48
12963;BME280;6546;49.882;8.666;2023-03-29T13:09:57;100075.09;;;14.05;55.71
12963;BME280;6546;49.882;8.666;2023-03-29T13:12:27;100066.63;;;14.18;55.56
12963;BME280;6546;49.882;8.666;2023-03-29T13:14:59;100065.13;;;14.30;55.02
12963;BME280;6546;49.882;8.666;2023-03-29T13:17:33;100063.22;;;14.39;54.17
12963;BME280;6546;49.882;8.666;2023-03-29T13:20:17;100057.09;;;14.46;53.68
12963;BME280;6546;49.882;8.666;2023-03-29T13:22:56;100054.56;;;14.53;52.48